Terminal Aerodrome Forecast
Issued by NWS Binghamton, NY

Home | Current Version | Previous Version | Text Only | Print | Product List | Glossary On
Versions: 1 2 3 4 5 6 7 8 9 10 11 12 13 14 15 16 17 18 19 20 21
000
FTUS41 KBGM 301700
TAFSYR
TAF
KSYR 301733Z 3018/3118 18012G18KT P6SM BKN045 OVC070
      TEMPO 3020/3024 5SM -SHRA OVC060
     FM310200 19003KT P6SM BKN120
     FM311200 23004KT P6SM BKN050
     FM311500 29006KT P6SM SCT050 BKN250=

USA.gov is the U.S. government's official web portal to all federal, state and local government web resources and services.